Current Weather

Austin Exec

Austin, Texas (KEDC)

Report from: Saturday, February 4, 2023 4:35 AM UTC
Current time: Saturday, February 4, 2023 5:09 AM UTC

Nearby weather
Weather history
Weather forecast

Present weatherMist
Temperature5.0°C (41.0°F)
Dew point4.0°C (39.2°F)
Winds Calm
Visibility5 mi. (8 km)
Clouds Sky clear
Altimeter30.49 in.Hg (1033 mB)
Relative humidity93 %
Density altitude-1,741 ft. (-531 m)
Remarks Fully automated report
Automated weather observing station with precipitation discriminator
Flight conditions Visual Meteorological Conditions
Raw dataKEDC 040435Z AUTO 00000KT 5SM BR CLR 05/04 A3049 RMK AO2
An unhandled exception has occurred. See browser dev tools for details. Reload 🗙